KAPA/APA METAR and TAF weather

Enter ICAO airport designator
Station Type Date Time Source
KAPA METAR 2021/01/27 13:53 UTC NOAA

KAPA 271353Z 16009KT 10SM CLR M11/M16 A3001 RMK AO2 SLP238 T11111156


Station Type Date Time Source
KAPA Decoded METAR 2021/01/27 13:53 UTC NOAA

DENVER CENTENNIAL AIRPORT, CO, United States (KAPA) 39-34N 104-51W 1775M
Jan 27, 2021 - 08:53 AM EST / 2021.01.27 1353 UTC
Wind: from the SSE (160 degrees) at 10 MPH (9 KT):0
Visibility: 10 mile(s):0
Sky conditions: clear
Temperature: 12.0 F (-11.1 C)
Windchill: 0 F (-18 C):1
Dew Point: 3.9 F (-15.6 C)
Relative Humidity: 69%
Pressure (altimeter): 30.01 in. Hg (1016 hPa)
ob: KAPA 271353Z 16009KT 10SM CLR M11/M16 A3001 RMK AO2 SLP238 T11111156
cycle: 14

Station Type Date Time Source
KAPA TAF 2021/01/27 12:24 UTC NOAA

TAF KAPA 271122Z 2712/2812 17006KT P6SM FEW200
FM272000 36006KT P6SM FEW200
FM280200 19007KT P6SM SCT200

Example: see airport list